TAF KMYR
KMYR 072336Z 0800/0824 02003KT P6SM BKN020 FM081200 13004KT 6SM SHRA BR OVC015 FM081400 36006KT 5SM SHRA BR OVC007 WS020/22035KT FM081600 32007KT 3SM SHRA BR OVC005 FM081900 32007KT P6SM BKN010=
METAR KMYR
WC KMYR
WS KMYR
WV KMYR